sensor_id;sensor_type;location;lat;lon;timestamp;pressure;altitude;pressure_sealevel;temperature;humidity
11036;BME280;5571;48.110;-1.706;2022-09-03T00:00:08;100567.38;;;20.41;100.00
11036;BME280;5571;48.110;-1.706;2022-09-03T00:03:03;100560.53;;;20.39;100.00
11036;BME280;5571;48.110;-1.706;2022-09-03T00:05:40;100562.34;;;20.38;100.00
11036;BME280;5571;48.110;-1.706;2022-09-03T00:08:11;100563.34;;;20.37;100.00
11036;BME280;5571;48.110;-1.706;2022-09-03T00:10:48;100556.31;;;20.36;100.00
11036;BME280;5571;48.110;-1.706;2022-09-03T00:13:29;100558.13;;;20.36;100.00
11036;BME280;5571;48.110;-1.706;2022-09-03T00:15:56;100555.47;;;20.36;100.00
11036;BME280;5571;48.110;-1.706;2022-09-03T00:18:27;100558.13;;;20.36;100.00
11036;BME280;5571;48.110;-1.706;2022-09-03T00:21:01;100554.47;;;20.37;100.00
11036;BME280;5571;48.110;-1.706;2022-09-03T00:23:34;100550.97;;;20.36;100.00
11036;BME280;5571;48.110;-1.706;2022-09-03T00:31:34;100544.66;;;20.37;100.00
11036;BME280;5571;48.110;-1.706;2022-09-03T00:34:21;100538.63;;;20.35;100.00
11036;BME280;5571;48.110;-1.706;2022-09-03T00:36:48;100548.59;;;20.33;100.00
11036;BME280;5571;48.110;-1.706;2022-09-03T00:39:16;100552.13;;;20.34;100.00
11036;BME280;5571;48.110;-1.706;2022-09-03T00:44:30;100542.16;;;20.26;100.00
11036;BME280;5571;48.110;-1.706;2022-09-03T00:47:10;100536.13;;;20.24;100.00
11036;BME280;5571;48.110;-1.706;2022-09-03T00:50:05;100539.78;;;20.23;100.00
11036;BME280;5571;48.110;-1.706;2022-09-03T00:52:56;100529.94;;;20.24;100.00
11036;BME280;5571;48.110;-1.706;2022-09-03T00:56:05;100535.16;;;20.25;100.00
11036;BME280;5571;48.110;-1.706;2022-09-03T01:01:27;100531.09;;;20.21;100.00
11036;BME280;5571;48.110;-1.706;2022-09-03T01:07:12;100526.03;;;20.18;100.00
11036;BME280;5571;48.110;-1.706;2022-09-03T01:09:50;100529.56;;;20.19;100.00
11036;BME280;5571;48.110;-1.706;2022-09-03T01:12:47;100531.53;;;20.17;100.00
11036;BME280;5571;48.110;-1.706;2022-09-03T01:18:01;100529.31;;;20.12;100.00
11036;BME280;5571;48.110;-1.706;2022-09-03T01:45:54;100529.28;;;20.22;100.00
11036;BME280;5571;48.110;-1.706;2022-09-03T01:56:41;100523.38;;;20.18;100.00
11036;BME280;5571;48.110;-1.706;2022-09-03T02:02:27;100517.34;;;20.16;100.00
11036;BME280;5571;48.110;-1.706;2022-09-03T02:04:59;100518.47;;;20.13;100.00
11036;BME280;5571;48.110;-1.706;2022-09-03T02:07:30;100513.16;;;20.13;100.00
11036;BME280;5571;48.110;-1.706;2022-09-03T02:09:58;100505.00;;;20.15;100.00
11036;BME280;5571;48.110;-1.706;2022-09-03T02:12:25;100503.19;;;20.16;100.00
11036;BME280;5571;48.110;-1.706;2022-09-03T02:14:54;100499.66;;;20.15;100.00
11036;BME280;5571;48.110;-1.706;2022-09-03T02:17:20;100508.50;;;20.16;100.00
11036;BME280;5571;48.110;-1.706;2022-09-03T02:19:45;100497.13;;;20.13;100.00
11036;BME280;5571;48.110;-1.706;2022-09-03T02:22:11;100501.81;;;20.11;100.00
11036;BME280;5571;48.110;-1.706;2022-09-03T02:24:37;100501.94;;;20.10;100.00
11036;BME280;5571;48.110;-1.706;2022-09-03T02:27:02;100497.59;;;20.09;100.00
11036;BME280;5571;48.110;-1.706;2022-09-03T02:29:28;100507.44;;;20.08;100.00
11036;BME280;5571;48.110;-1.706;2022-09-03T02:31:54;100500.56;;;20.06;100.00
11036;BME280;5571;48.110;-1.706;2022-09-03T02:34:19;100502.56;;;20.04;100.00
11036;BME280;5571;48.110;-1.706;2022-09-03T02:36:46;100496.38;;;20.03;100.00
11036;BME280;5571;48.110;-1.706;2022-09-03T02:39:12;100503.38;;;20.04;100.00
11036;BME280;5571;48.110;-1.706;2022-09-03T02:41:38;100510.38;;;20.05;100.00
11036;BME280;5571;48.110;-1.706;2022-09-03T02:44:28;100512.06;;;20.06;100.00
11036;BME280;5571;48.110;-1.706;2022-09-03T02:47:01;100512.06;;;20.06;100.00
11036;BME280;5571;48.110;-1.706;2022-09-03T02:49:28;100516.56;;;20.06;100.00
11036;BME280;5571;48.110;-1.706;2022-09-03T02:52:05;100515.72;;;20.05;100.00
11036;BME280;5571;48.110;-1.706;2022-09-03T02:54:36;100512.06;;;20.06;100.00
11036;BME280;5571;48.110;-1.706;2022-09-03T02:57:08;100516.56;;;20.06;100.00
11036;BME280;5571;48.110;-1.706;2022-09-03T02:59:34;100523.59;;;20.07;100.00
11036;BME280;5571;48.110;-1.706;2022-09-03T03:02:00;100515.72;;;20.05;100.00
11036;BME280;5571;48.110;-1.706;2022-09-03T03:04:26;100519.53;;;20.03;100.00
11036;BME280;5571;48.110;-1.706;2022-09-03T03:06:52;100519.28;;;19.96;100.00
11036;BME280;5571;48.110;-1.706;2022-09-03T03:09:17;100519.03;;;19.90;100.00
11036;BME280;5571;48.110;-1.706;2022-09-03T03:11:43;100517.81;;;19.84;100.00
11036;BME280;5571;48.110;-1.706;2022-09-03T03:14:08;100526.94;;;19.82;100.00
11036;BME280;5571;48.110;-1.706;2022-09-03T03:16:34;100512.59;;;19.83;100.00
11036;BME280;5571;48.110;-1.706;2022-09-03T03:18:59;100521.97;;;19.87;100.00
11036;BME280;5571;48.110;-1.706;2022-09-03T03:21:25;100515.66;;;19.88;100.00
11036;BME280;5571;48.110;-1.706;2022-09-03T03:23:50;100511.41;;;19.67;100.00
11036;BME280;5571;48.110;-1.706;2022-09-03T03:26:17;100510.31;;;19.60;100.00
11036;BME280;5571;48.110;-1.706;2022-09-03T03:28:44;100506.69;;;19.52;100.00
11036;BME280;5571;48.110;-1.706;2022-09-03T03:31:13;100514.97;;;19.49;100.00
11036;BME280;5571;48.110;-1.706;2022-09-03T03:33:39;100511.47;;;19.48;100.00
11036;BME280;5571;48.110;-1.706;2022-09-03T03:36:13;100501.13;;;19.45;100.00
11036;BME280;5571;48.110;-1.706;2022-09-03T03:38:40;100504.44;;;19.38;100.00
11036;BME280;5571;48.110;-1.706;2022-09-03T03:41:14;100504.75;;;19.35;100.00
11036;BME280;5571;48.110;-1.706;2022-09-03T03:43:40;100502.66;;;19.29;100.00
11036;BME280;5571;48.110;-1.706;2022-09-03T03:46:05;100506.91;;;19.12;100.00
11036;BME280;5571;48.110;-1.706;2022-09-03T03:48:31;100499.44;;;19.15;100.00
11036;BME280;5571;48.110;-1.706;2022-09-03T03:51:04;100501.41;;;19.23;100.00
11036;BME280;5571;48.110;-1.706;2022-09-03T03:53:31;100501.41;;;19.23;100.00
11036;BME280;5571;48.110;-1.706;2022-09-03T03:55:59;100499.59;;;19.23;100.00
11036;BME280;5571;48.110;-1.706;2022-09-03T03:58:25;100505.91;;;19.22;100.00
11036;BME280;5571;48.110;-1.706;2022-09-03T04:00:51;100500.16;;;19.17;100.00
11036;BME280;5571;48.110;-1.706;2022-09-03T04:03:17;100498.91;;;19.12;100.00
11036;BME280;5571;48.110;-1.706;2022-09-03T04:05:43;100500.19;;;19.08;100.00
11036;BME280;5571;48.110;-1.706;2022-09-03T04:08:08;100493.88;;;18.99;100.00
11036;BME280;5571;48.110;-1.706;2022-09-03T04:10:35;100494.19;;;18.96;100.00
11036;BME280;5571;48.110;-1.706;2022-09-03T04:13:00;100497.41;;;18.90;100.00
11036;BME280;5571;48.110;-1.706;2022-09-03T04:15:25;100494.19;;;18.87;100.00
11036;BME280;5571;48.110;-1.706;2022-09-03T04:17:53;100501.75;;;18.82;100.00
11036;BME280;5571;48.110;-1.706;2022-09-03T04:20:19;100509.59;;;18.73;100.00
11036;BME280;5571;48.110;-1.706;2022-09-03T04:22:45;100501.44;;;18.75;100.00
11036;BME280;5571;48.110;-1.706;2022-09-03T04:25:10;100499.63;;;18.75;100.00
11036;BME280;5571;48.110;-1.706;2022-09-03T04:27:35;100498.53;;;18.78;100.00
11036;BME280;5571;48.110;-1.706;2022-09-03T04:30:01;100507.06;;;18.82;100.00
11036;BME280;5571;48.110;-1.706;2022-09-03T04:32:26;100506.09;;;18.83;100.00
11036;BME280;5571;48.110;-1.706;2022-09-03T04:35:11;100506.09;;;18.83;100.00
11036;BME280;5571;48.110;-1.706;2022-09-03T04:37:36;100505.13;;;18.84;100.00
11036;BME280;5571;48.110;-1.706;2022-09-03T04:40:02;100506.78;;;18.85;100.00
11036;BME280;5571;48.110;-1.706;2022-09-03T04:42:28;100512.81;;;18.87;100.00
11036;BME280;5571;48.110;-1.706;2022-09-03T04:44:53;100512.94;;;18.85;100.00
11036;BME280;5571;48.110;-1.706;2022-09-03T04:47:18;100514.09;;;18.83;100.00
11036;BME280;5571;48.110;-1.706;2022-09-03T04:49:44;100509.00;;;18.79;100.00
11036;BME280;5571;48.110;-1.706;2022-09-03T04:52:09;100511.13;;;18.76;100.00
11036;BME280;5571;48.110;-1.706;2022-09-03T04:54:34;100515.59;;;18.75;100.00
11036;BME280;5571;48.110;-1.706;2022-09-03T04:57:00;100509.31;;;18.76;100.00
11036;BME280;5571;48.110;-1.706;2022-09-03T04:59:25;100505.53;;;18.79;100.00
11036;BME280;5571;48.110;-1.706;2022-09-03T05:01:50;100503.84;;;18.78;100.00
11036;BME280;5571;48.110;-1.706;2022-09-03T05:04:17;100511.97;;;18.76;100.00
11036;BME280;5571;48.110;-1.706;2022-09-03T05:06:42;100508.47;;;18.76;100.00
11036;BME280;5571;48.110;-1.706;2022-09-03T05:09:09;100517.16;;;18.78;100.00
11036;BME280;5571;48.110;-1.706;2022-09-03T05:11:35;100509.31;;;18.76;100.00
11036;BME280;5571;48.110;-1.706;2022-09-03T05:14:00;100511.84;;;18.78;100.00
11036;BME280;5571;48.110;-1.706;2022-09-03T05:16:27;100514.34;;;18.79;100.00
11036;BME280;5571;48.110;-1.706;2022-09-03T05:18:55;100520.66;;;18.78;100.00
11036;BME280;5571;48.110;-1.706;2022-09-03T05:21:22;100514.63;;;18.76;100.00
11036;BME280;5571;48.110;-1.706;2022-09-03T05:23:49;100519.28;;;18.74;100.00
11036;BME280;5571;48.110;-1.706;2022-09-03T05:26:17;100522.19;;;18.71;100.00
11036;BME280;5571;48.110;-1.706;2022-09-03T05:28:43;100515.34;;;18.69;100.00
11036;BME280;5571;48.110;-1.706;2022-09-03T05:31:14;100519.25;;;18.65;100.00
11036;BME280;5571;48.110;-1.706;2022-09-03T05:33:52;100519.81;;;18.59;100.00
11036;BME280;5571;48.110;-1.706;2022-09-03T05:36:22;100526.38;;;18.55;100.00
11036;BME280;5571;48.110;-1.706;2022-09-03T05:38:48;100528.34;;;18.53;100.00
11036;BME280;5571;48.110;-1.706;2022-09-03T05:41:15;100526.66;;;18.52;100.00
11036;BME280;5571;48.110;-1.706;2022-09-03T05:43:41;100530.56;;;18.48;100.00
11036;BME280;5571;48.110;-1.706;2022-09-03T05:46:10;100535.03;;;18.47;100.00
11036;BME280;5571;48.110;-1.706;2022-09-03T05:48:37;100534.44;;;18.44;100.00
11036;BME280;5571;48.110;-1.706;2022-09-03T05:51:08;100541.19;;;18.38;100.00
11036;BME280;5571;48.110;-1.706;2022-09-03T05:53:36;100536.84;;;18.37;100.00
11036;BME280;5571;48.110;-1.706;2022-09-03T05:56:05;100537.69;;;18.38;100.00
11036;BME280;5571;48.110;-1.706;2022-09-03T05:58:32;100545.66;;;18.38;100.00
11036;BME280;5571;48.110;-1.706;2022-09-03T06:00:58;100540.34;;;18.38;100.00
11036;BME280;5571;48.110;-1.706;2022-09-03T06:03:23;100543.13;;;18.36;100.00
11036;BME280;5571;48.110;-1.706;2022-09-03T06:05:50;100549.28;;;18.37;100.00
11036;BME280;5571;48.110;-1.706;2022-09-03T06:08:16;100555.47;;;18.37;100.00
11036;BME280;5571;48.110;-1.706;2022-09-03T06:10:41;100560.91;;;18.35;100.00
11036;BME280;5571;48.110;-1.706;2022-09-03T06:13:07;100563.56;;;18.35;100.00
11036;BME280;5571;48.110;-1.706;2022-09-03T06:15:32;100564.97;;;18.30;100.00
11036;BME280;5571;48.110;-1.706;2022-09-03T06:17:57;100562.53;;;18.17;100.00
11036;BME280;5571;48.110;-1.706;2022-09-03T06:20:23;100561.00;;;18.15;100.00
11036;BME280;5571;48.110;-1.706;2022-09-03T06:22:52;100569.38;;;18.10;100.00
11036;BME280;5571;48.110;-1.706;2022-09-03T06:25:18;100568.53;;;18.10;100.00
11036;BME280;5571;48.110;-1.706;2022-09-03T06:27:43;100564.34;;;18.07;100.00
11036;BME280;5571;48.110;-1.706;2022-09-03T06:30:10;100572.16;;;18.09;100.00
11036;BME280;5571;48.110;-1.706;2022-09-03T06:32:46;100570.50;;;18.08;100.00
11036;BME280;5571;48.110;-1.706;2022-09-03T06:35:11;100569.38;;;18.10;100.00
11036;BME280;5571;48.110;-1.706;2022-09-03T06:37:40;100569.94;;;18.14;100.00
11036;BME280;5571;48.110;-1.706;2022-09-03T06:40:06;100569.66;;;18.17;100.00
11036;BME280;5571;48.110;-1.706;2022-09-03T06:42:39;100579.22;;;18.19;100.00
11036;BME280;5571;48.110;-1.706;2022-09-03T06:45:06;100577.97;;;18.23;100.00
11036;BME280;5571;48.110;-1.706;2022-09-03T06:47:32;100583.72;;;18.28;100.00
11036;BME280;5571;48.110;-1.706;2022-09-03T06:49:58;100586.81;;;18.33;100.00
11036;BME280;5571;48.110;-1.706;2022-09-03T06:52:25;100582.91;;;18.38;100.00
11036;BME280;5571;48.110;-1.706;2022-09-03T06:54:50;100590.59;;;18.41;100.00
11036;BME280;5571;48.110;-1.706;2022-09-03T06:57:16;100593.81;;;18.44;100.00
11036;BME280;5571;48.110;-1.706;2022-09-03T06:59:41;100592.72;;;18.47;100.00
11036;BME280;5571;48.110;-1.706;2022-09-03T07:02:08;100591.47;;;18.51;100.00
11036;BME280;5571;48.110;-1.706;2022-09-03T07:04:33;100589.53;;;18.53;100.00
11036;BME280;5571;48.110;-1.706;2022-09-03T07:06:59;100594.44;;;18.57;100.00
11036;BME280;5571;48.110;-1.706;2022-09-03T07:09:25;100596.03;;;18.69;100.00
11036;BME280;5571;48.110;-1.706;2022-09-03T07:11:51;100590.16;;;18.85;100.00
11036;BME280;5571;48.110;-1.706;2022-09-03T07:14:18;100597.03;;;18.97;100.00
11036;BME280;5571;48.110;-1.706;2022-09-03T07:16:44;100596.78;;;19.00;100.00
11036;BME280;5571;48.110;-1.706;2022-09-03T07:19:10;100593.25;;;19.00;100.00
11036;BME280;5571;48.110;-1.706;2022-09-03T07:21:37;100596.47;;;19.03;100.00
11036;BME280;5571;48.110;-1.706;2022-09-03T07:24:06;100597.44;;;19.02;100.00
11036;BME280;5571;48.110;-1.706;2022-09-03T07:26:41;100590.88;;;18.97;100.00
11036;BME280;5571;48.110;-1.706;2022-09-03T07:29:10;100598.16;;;18.95;100.00
11036;BME280;5571;48.110;-1.706;2022-09-03T07:31:40;100602.09;;;18.91;100.00
11036;BME280;5571;48.110;-1.706;2022-09-03T07:34:08;100594.22;;;18.89;100.00
11036;BME280;5571;48.110;-1.706;2022-09-03T07:36:43;100589.47;;;18.83;100.00
11036;BME280;5571;48.110;-1.706;2022-09-03T07:39:12;100601.78;;;18.84;100.00
11036;BME280;5571;48.110;-1.706;2022-09-03T07:41:38;100605.28;;;18.85;100.00
11036;BME280;5571;48.110;-1.706;2022-09-03T07:44:07;100604.75;;;18.91;100.00
11036;BME280;5571;48.110;-1.706;2022-09-03T07:46:34;100612.44;;;18.94;100.00
11036;BME280;5571;48.110;-1.706;2022-09-03T07:49:01;100620.31;;;18.95;100.00
11036;BME280;5571;48.110;-1.706;2022-09-03T07:51:29;100616.78;;;18.95;100.00
11036;BME280;5571;48.110;-1.706;2022-09-03T07:54:00;100619.34;;;18.96;100.00
11036;BME280;5571;48.110;-1.706;2022-09-03T07:56:30;100629.56;;;19.01;100.00
11036;BME280;5571;48.110;-1.706;2022-09-03T07:58:56;100625.09;;;19.01;100.00
11036;BME280;5571;48.110;-1.706;2022-09-03T08:01:22;100622.97;;;19.05;100.00
11036;BME280;5571;48.110;-1.706;2022-09-03T08:03:51;100631.66;;;18.97;100.00
11036;BME280;5571;48.110;-1.706;2022-09-03T08:06:19;100624.50;;;18.98;100.00
11036;BME280;5571;48.110;-1.706;2022-09-03T08:08:46;100628.56;;;19.02;100.00
11036;BME280;5571;48.110;-1.706;2022-09-03T08:11:14;100636.44;;;19.03;100.00
11036;BME280;5571;48.110;-1.706;2022-09-03T08:13:48;100636.84;;;19.08;100.00
11036;BME280;5571;48.110;-1.706;2022-09-03T08:16:15;100636.88;;;19.18;100.00
11036;BME280;5571;48.110;-1.706;2022-09-03T08:18:42;100641.63;;;19.24;100.00
11036;BME280;5571;48.110;-1.706;2022-09-03T08:21:11;100642.47;;;19.24;100.00
11036;BME280;5571;48.110;-1.706;2022-09-03T08:23:40;100643.47;;;19.23;100.00
11036;BME280;5571;48.110;-1.706;2022-09-03T08:26:06;100652.00;;;19.27;100.00
11036;BME280;5571;48.110;-1.706;2022-09-03T08:28:33;100655.53;;;19.28;100.00
11036;BME280;5571;48.110;-1.706;2022-09-03T08:31:09;100655.78;;;19.34;100.00
11036;BME280;5571;48.110;-1.706;2022-09-03T08:33:46;100654.69;;;19.27;100.00
11036;BME280;5571;48.110;-1.706;2022-09-03T08:36:17;100661.25;;;19.13;100.00
11036;BME280;5571;48.110;-1.706;2022-09-03T08:38:44;100661.25;;;19.04;100.00
11036;BME280;5571;48.110;-1.706;2022-09-03T08:46:37;100670.06;;;19.04;100.00
11036;BME280;5571;48.110;-1.706;2022-09-03T08:49:06;100678.22;;;19.12;100.00
11036;BME280;5571;48.110;-1.706;2022-09-03T08:51:34;100680.88;;;19.12;100.00
11036;BME280;5571;48.110;-1.706;2022-09-03T08:54:02;100693.50;;;19.20;100.00
11036;BME280;5571;48.110;-1.706;2022-09-03T08:56:30;100686.34;;;19.30;100.00
11036;BME280;5571;48.110;-1.706;2022-09-03T08:58:56;100690.97;;;19.38;100.00
11036;BME280;5571;48.110;-1.706;2022-09-03T09:07:13;100700.16;;;19.54;100.00
11036;BME280;5571;48.110;-1.706;2022-09-03T09:10:02;100699.56;;;19.60;100.00
11036;BME280;5571;48.110;-1.706;2022-09-03T09:12:46;100708.00;;;19.65;100.00
11036;BME280;5571;48.110;-1.706;2022-09-03T09:20:52;100721.56;;;19.91;100.00
11036;BME280;5571;48.110;-1.706;2022-09-03T09:23:24;100721.03;;;19.88;100.00
11036;BME280;5571;48.110;-1.706;2022-09-03T09:25:53;100724.41;;;19.99;100.00
11036;BME280;5571;48.110;-1.706;2022-09-03T09:28:22;100727.75;;;20.01;100.00
11036;BME280;5571;48.110;-1.706;2022-09-03T09:30:51;100722.09;;;20.14;100.00
11036;BME280;5571;48.110;-1.706;2022-09-03T09:33:18;100728.25;;;20.24;100.00
11036;BME280;5571;48.110;-1.706;2022-09-03T09:35:45;100727.97;;;20.27;100.00
11036;BME280;5571;48.110;-1.706;2022-09-03T09:38:11;100724.31;;;20.38;100.00
11036;BME280;5571;48.110;-1.706;2022-09-03T09:40:39;100724.41;;;20.46;100.00
11036;BME280;5571;48.110;-1.706;2022-09-03T09:43:14;100732.28;;;20.47;100.00
11036;BME280;5571;48.110;-1.706;2022-09-03T09:45:45;100725.81;;;20.50;100.00
11036;BME280;5571;48.110;-1.706;2022-09-03T09:48:22;100734.13;;;20.47;100.00
11036;BME280;5571;48.110;-1.706;2022-09-03T09:51:12;100738.19;;;20.51;100.00
11036;BME280;5571;48.110;-1.706;2022-09-03T09:53:39;100730.00;;;20.62;100.00
11036;BME280;5571;48.110;-1.706;2022-09-03T09:56:05;100735.41;;;20.80;100.00
11036;BME280;5571;48.110;-1.706;2022-09-03T09:58:33;100734.38;;;20.81;100.00
11036;BME280;5571;48.110;-1.706;2022-09-03T10:01:03;100736.91;;;20.82;100.00
11036;BME280;5571;48.110;-1.706;2022-09-03T10:03:33;100730.06;;;20.80;100.00
11036;BME280;5571;48.110;-1.706;2022-09-03T10:06:04;100733.09;;;20.85;100.00
11036;BME280;5571;48.110;-1.706;2022-09-03T10:08:51;100736.06;;;20.82;100.00
11036;BME280;5571;48.110;-1.706;2022-09-03T10:11:18;100726.38;;;20.81;100.00
11036;BME280;5571;48.110;-1.706;2022-09-03T10:13:45;100733.66;;;20.88;100.00
11036;BME280;5571;48.110;-1.706;2022-09-03T10:16:26;100738.00;;;20.89;100.00
11036;BME280;5571;48.110;-1.706;2022-09-03T10:19:04;100738.25;;;20.96;100.00
11036;BME280;5571;48.110;-1.706;2022-09-03T10:21:49;100739.00;;;20.88;100.00
11036;BME280;5571;48.110;-1.706;2022-09-03T10:26:48;100744.00;;;20.74;100.00
11036;BME280;5571;48.110;-1.706;2022-09-03T10:29:18;100742.19;;;20.65;100.00
11036;BME280;5571;48.110;-1.706;2022-09-03T10:31:54;100745.00;;;20.63;100.00
11036;BME280;5571;48.110;-1.706;2022-09-03T10:34:33;100745.78;;;20.46;100.00
11036;BME280;5571;48.110;-1.706;2022-09-03T10:42:39;100738.19;;;20.51;100.00
11036;BME280;5571;48.110;-1.706;2022-09-03T10:53:39;100732.56;;;21.09;100.00
11036;BME280;5571;48.110;-1.706;2022-09-03T10:56:31;100723.53;;;21.37;100.00
11036;BME280;5571;48.110;-1.706;2022-09-03T11:04:36;100729.34;;;21.50;100.00
11036;BME280;5571;48.110;-1.706;2022-09-03T11:07:08;100721.31;;;21.68;100.00
11036;BME280;5571;48.110;-1.706;2022-09-03T11:09:38;100717.72;;;21.95;100.00
11036;BME280;5571;48.110;-1.706;2022-09-03T11:12:11;100721.97;;;22.05;100.00
11036;BME280;5571;48.110;-1.706;2022-09-03T11:14:43;100723.94;;;22.21;97.98
11036;BME280;5571;48.110;-1.706;2022-09-03T11:17:22;100727.97;;;22.25;100.00
11036;BME280;5571;48.110;-1.706;2022-09-03T11:19:57;100717.63;;;22.30;97.90
11036;BME280;5571;48.110;-1.706;2022-09-03T11:22:28;100721.56;;;22.44;99.44
11036;BME280;5571;48.110;-1.706;2022-09-03T11:24:58;100715.41;;;22.51;93.75
11036;BME280;5571;48.110;-1.706;2022-09-03T11:30:07;100713.78;;;22.58;89.71
11036;BME280;5571;48.110;-1.706;2022-09-03T11:32:43;100714.44;;;22.60;89.28
11036;BME280;5571;48.110;-1.706;2022-09-03T11:35:24;100715.69;;;22.74;90.40
11036;BME280;5571;48.110;-1.706;2022-09-03T11:37:58;100710.81;;;22.69;82.98
11036;BME280;5571;48.110;-1.706;2022-09-03T11:40:35;100723.81;;;22.64;83.77
11036;BME280;5571;48.110;-1.706;2022-09-03T11:46:08;100711.09;;;22.58;84.20
11036;BME280;5571;48.110;-1.706;2022-09-03T11:48:44;100713.59;;;22.60;84.95
11036;BME280;5571;48.110;-1.706;2022-09-03T11:51:30;100713.91;;;22.57;88.37
11036;BME280;5571;48.110;-1.706;2022-09-03T11:56:27;100715.00;;;22.38;93.50
11036;BME280;5571;48.110;-1.706;2022-09-03T12:01:44;100704.44;;;22.11;95.18
11036;BME280;5571;48.110;-1.706;2022-09-03T12:04:15;100715.50;;;22.42;95.46
11036;BME280;5571;48.110;-1.706;2022-09-03T12:06:46;100713.22;;;22.81;92.36
11036;BME280;5571;48.110;-1.706;2022-09-03T12:09:24;100709.28;;;23.17;88.34
11036;BME280;5571;48.110;-1.706;2022-09-03T12:17:33;100711.88;;;23.43;80.10
11036;BME280;5571;48.110;-1.706;2022-09-03T12:20:11;100709.69;;;23.30;78.91
11036;BME280;5571;48.110;-1.706;2022-09-03T12:22:37;100704.75;;;23.09;77.45
11036;BME280;5571;48.110;-1.706;2022-09-03T12:25:13;100717.25;;;22.85;77.77
11036;BME280;5571;48.110;-1.706;2022-09-03T12:27:42;100718.09;;;22.59;80.35
11036;BME280;5571;48.110;-1.706;2022-09-03T12:30:21;100723.25;;;22.45;75.22
11036;BME280;5571;48.110;-1.706;2022-09-03T12:32:48;100718.91;;;22.52;73.66
11036;BME280;5571;48.110;-1.706;2022-09-03T12:35:19;100740.28;;;22.69;74.74
11036;BME280;5571;48.110;-1.706;2022-09-03T12:37:45;100709.72;;;22.54;77.26
11036;BME280;5571;48.110;-1.706;2022-09-03T12:40:18;100720.63;;;22.61;79.07
11036;BME280;5571;48.110;-1.706;2022-09-03T12:45:10;100719.41;;;22.81;77.87
11036;BME280;5571;48.110;-1.706;2022-09-03T12:47:40;100724.53;;;22.66;77.30
11036;BME280;5571;48.110;-1.706;2022-09-03T12:50:10;100731.34;;;22.61;71.57
11036;BME280;5571;48.110;-1.706;2022-09-03T12:53:16;100722.59;;;22.77;70.72
11036;BME280;5571;48.110;-1.706;2022-09-03T13:01:07;100726.28;;;23.42;62.55
11036;BME280;5571;48.110;-1.706;2022-09-03T13:06:09;100720.81;;;23.51;58.96
11036;BME280;5571;48.110;-1.706;2022-09-03T13:08:46;100719.72;;;23.28;60.39
11036;BME280;5571;48.110;-1.706;2022-09-03T13:11:16;100724.41;;;23.26;60.00
11036;BME280;5571;48.110;-1.706;2022-09-03T13:14:06;100707.53;;;23.58;61.45
11036;BME280;5571;48.110;-1.706;2022-09-03T13:24:23;100708.72;;;23.96;57.45
11036;BME280;5571;48.110;-1.706;2022-09-03T13:27:32;100713.41;;;23.94;56.71
11036;BME280;5571;48.110;-1.706;2022-09-03T13:30:12;100702.50;;;23.71;58.66
11036;BME280;5571;48.110;-1.706;2022-09-03T13:32:41;100706.53;;;23.67;60.34
11036;BME280;5571;48.110;-1.706;2022-09-03T13:37:46;100705.47;;;23.36;61.46
11036;BME280;5571;48.110;-1.706;2022-09-03T13:40:18;100695.59;;;23.36;62.05
11036;BME280;5571;48.110;-1.706;2022-09-03T13:42:54;100700.63;;;23.39;63.40
11036;BME280;5571;48.110;-1.706;2022-09-03T13:48:19;100706.53;;;23.59;62.92
11036;BME280;5571;48.110;-1.706;2022-09-03T13:59:46;100712.31;;;23.22;64.50
11036;BME280;5571;48.110;-1.706;2022-09-03T14:07:41;100708.50;;;23.25;63.47
11036;BME280;5571;48.110;-1.706;2022-09-03T14:10:22;100709.69;;;23.38;59.19
11036;BME280;5571;48.110;-1.706;2022-09-03T14:13:23;100703.16;;;23.41;58.98
11036;BME280;5571;48.110;-1.706;2022-09-03T14:16:06;100716.09;;;23.61;58.29
11036;BME280;5571;48.110;-1.706;2022-09-03T14:18:48;100726.09;;;23.35;58.28
11036;BME280;5571;48.110;-1.706;2022-09-03T14:21:21;100709.69;;;23.30;60.04
11036;BME280;5571;48.110;-1.706;2022-09-03T14:23:58;100720.47;;;23.46;59.95
11036;BME280;5571;48.110;-1.706;2022-09-03T14:26:36;100716.09;;;23.61;56.88
11036;BME280;5571;48.110;-1.706;2022-09-03T14:34:55;100717.06;;;23.36;61.95
11036;BME280;5571;48.110;-1.706;2022-09-03T14:40:22;100717.13;;;23.52;61.42
11036;BME280;5571;48.110;-1.706;2022-09-03T14:54:13;100710.75;;;23.70;56.07
11036;BME280;5571;48.110;-1.706;2022-09-03T15:05:08;100723.16;;;23.87;57.82
11036;BME280;5571;48.110;-1.706;2022-09-03T15:08:15;100729.38;;;23.95;56.76
11036;BME280;5571;48.110;-1.706;2022-09-03T15:10:56;100723.81;;;23.89;56.81
11036;BME280;5571;48.110;-1.706;2022-09-03T15:13:35;100718.31;;;23.74;56.93
11036;BME280;5571;48.110;-1.706;2022-09-03T15:30:19;100710.72;;;23.61;57.40
11036;BME280;5571;48.110;-1.706;2022-09-03T15:38:20;100703.72;;;23.69;58.69
11036;BME280;5571;48.110;-1.706;2022-09-03T15:40:51;100716.44;;;23.83;58.45
11036;BME280;5571;48.110;-1.706;2022-09-03T15:43:30;100725.66;;;23.72;60.24
11036;BME280;5571;48.110;-1.706;2022-09-03T15:46:08;100717.97;;;23.61;60.53
11036;BME280;5571;48.110;-1.706;2022-09-03T15:48:50;100717.78;;;23.54;61.45
11036;BME280;5571;48.110;-1.706;2022-09-03T15:51:34;100725.47;;;23.49;61.34
11036;BME280;5571;48.110;-1.706;2022-09-03T15:56:42;100724.44;;;23.34;63.73
11036;BME280;5571;48.110;-1.706;2022-09-03T15:59:25;100728.81;;;23.43;64.35
11036;BME280;5571;48.110;-1.706;2022-09-03T16:02:04;100729.94;;;23.16;63.77
11036;BME280;5571;48.110;-1.706;2022-09-03T16:07:40;100739.25;;;23.04;64.83
11036;BME280;5571;48.110;-1.706;2022-09-03T16:10:18;100731.81;;;22.90;65.63
11036;BME280;5571;48.110;-1.706;2022-09-03T16:15:14;100723.75;;;22.82;66.57
11036;BME280;5571;48.110;-1.706;2022-09-03T16:20:40;100721.09;;;22.82;66.41
11036;BME280;5571;48.110;-1.706;2022-09-03T16:25:47;100727.66;;;22.96;67.22
11036;BME280;5571;48.110;-1.706;2022-09-03T16:28:26;100723.66;;;23.00;68.13
11036;BME280;5571;48.110;-1.706;2022-09-03T16:36:56;100736.72;;;22.95;66.22